createdAt,value
2019-05-02T00:03:20.066Z,85.90
2019-05-02T00:07:29.163Z,85.60
2019-05-02T00:11:38.380Z,85.80
2019-05-02T00:15:48.885Z,86.90
2019-05-02T00:19:58.010Z,86.30
2019-05-02T00:24:09.248Z,86.40
2019-05-02T00:28:18.103Z,86.10
2019-05-02T00:32:26.983Z,86.10
2019-05-02T00:36:35.816Z,86.00
2019-05-02T00:40:46.554Z,86.10
2019-05-02T00:44:55.491Z,86.30
2019-05-02T00:49:04.411Z,86.90
2019-05-02T00:53:13.517Z,86.40
2019-05-02T00:57:23.019Z,86.50
2019-05-02T01:02:00.146Z,86.40
2019-05-02T01:06:13.716Z,86.60
2019-05-02T01:10:21.308Z,86.50
2019-05-02T01:14:31.760Z,86.70
2019-05-02T01:18:41.341Z,86.50
2019-05-02T01:22:52.286Z,86.60
2019-05-02T01:27:16.019Z,86.50
2019-05-02T01:31:37.346Z,86.70
2019-05-02T01:35:52.061Z,86.80
2019-05-02T01:40:01.159Z,87.00
2019-05-02T01:44:10.113Z,87.00
2019-05-02T01:48:19.377Z,87.10
2019-05-02T01:52:28.204Z,86.60
2019-05-02T01:56:36.995Z,86.70
2019-05-02T02:00:45.994Z,86.70
2019-05-02T02:04:56.938Z,86.80
2019-05-02T02:09:08.385Z,86.90
2019-05-02T02:13:17.834Z,86.60
2019-05-02T02:17:26.629Z,86.50
2019-05-02T02:21:43.013Z,86.20
2019-05-02T02:25:56.082Z,86.70
2019-05-02T02:30:06.452Z,86.00
2019-05-02T02:34:21.150Z,85.90
2019-05-02T02:38:26.781Z,85.70
2019-05-02T02:42:36.498Z,85.50
2019-05-02T02:46:46.001Z,85.90
2019-05-02T02:50:54.927Z,86.30
2019-05-02T02:55:04.100Z,86.20
2019-05-02T02:59:19.397Z,86.40
2019-05-02T03:03:28.130Z,86.20
2019-05-02T03:07:34.667Z,86.10
2019-05-02T03:12:04.252Z,85.80
2019-05-02T03:16:16.578Z,85.30
2019-05-02T03:20:25.528Z,85.20
2019-05-02T03:24:36.768Z,85.20
2019-05-02T03:28:45.137Z,84.60
2019-05-02T03:33:05.207Z,84.60
2019-05-02T03:37:10.543Z,84.60
2019-05-02T03:41:20.798Z,84.40
2019-05-02T03:45:32.280Z,84.20
2019-05-02T03:49:41.235Z,84.10
2019-05-02T03:53:48.459Z,84.70
2019-05-02T03:57:57.667Z,85.40
2019-05-02T04:02:06.715Z,85.30
2019-05-02T04:06:20.916Z,85.10
2019-05-02T04:10:59.573Z,85.20
2019-05-02T04:15:09.215Z,85.30
2019-05-02T04:19:16.517Z,85.50
2019-05-02T04:23:27.887Z,85.10
2019-05-02T04:27:37.170Z,85.10
2019-05-02T04:31:46.022Z,85.70
2019-05-02T04:35:59.175Z,85.00
2019-05-02T04:40:09.087Z,84.60
2019-05-02T04:44:18.841Z,84.50
2019-05-02T04:48:28.477Z,84.40
2019-05-02T04:52:38.338Z,84.30
2019-05-02T04:56:53.103Z,83.80
2019-05-02T05:01:01.869Z,83.80
2019-05-02T05:05:09.589Z,83.40
2019-05-02T05:09:18.434Z,83.00
2019-05-02T05:13:28.971Z,82.60
2019-05-02T05:17:37.994Z,82.50
2019-05-02T05:21:47.680Z,82.20
2019-05-02T05:26:03.445Z,81.70
2019-05-02T05:30:15.243Z,81.60
2019-05-02T05:34:22.904Z,81.80
2019-05-02T05:38:33.344Z,81.60
2019-05-02T05:42:41.881Z,81.50
2019-05-02T05:46:51.086Z,81.20
2019-05-02T05:51:00.035Z,81.20
2019-05-02T05:55:12.774Z,80.70
2019-05-02T05:59:22.249Z,80.70
2019-05-02T06:03:33.974Z,80.50
2019-05-02T06:07:44.828Z,80.50
2019-05-02T06:11:55.383Z,79.60
2019-05-02T06:16:03.453Z,79.00
2019-05-02T06:20:13.265Z,78.10
2019-05-02T06:24:22.046Z,77.20
2019-05-02T06:28:30.842Z,77.00
2019-05-02T06:32:39.701Z,76.50
2019-05-02T06:36:48.582Z,75.50
2019-05-02T06:40:57.434Z,74.50
2019-05-02T06:45:06.960Z,73.80
2019-05-02T06:49:16.074Z,72.70
2019-05-02T06:53:24.937Z,71.50
2019-05-02T06:57:33.741Z,69.10
2019-05-02T07:01:42.623Z,69.20
2019-05-02T07:05:51.499Z,69.40
2019-05-02T07:10:00.293Z,69.90
2019-05-02T07:14:13.661Z,70.00
2019-05-02T07:18:21.283Z,69.90
2019-05-02T07:22:33.103Z,69.20
2019-05-02T07:26:40.670Z,68.40
2019-05-02T07:30:49.689Z,67.70
2019-05-02T07:34:58.570Z,68.20
2019-05-02T07:39:09.019Z,68.60
2019-05-02T07:43:21.136Z,67.30
2019-05-02T07:47:29.083Z,66.60
2019-05-02T07:51:38.030Z,66.40
2019-05-02T07:55:49.098Z,64.90
2019-05-02T08:00:00.497Z,63.50
2019-05-02T08:04:11.308Z,62.50
2019-05-02T08:08:19.359Z,62.00
2019-05-02T08:12:28.242Z,59.90
2019-05-02T08:16:37.422Z,59.00
2019-05-02T08:20:46.523Z,58.30
2019-05-02T08:24:55.422Z,57.40
2019-05-02T08:29:05.982Z,56.80
2019-05-02T08:33:15.451Z,56.10
2019-05-02T08:37:24.233Z,55.10
2019-05-02T08:41:33.342Z,55.30
2019-05-02T08:45:42.141Z,55.00
2019-05-02T08:49:54.707Z,54.30
2019-05-02T08:54:02.454Z,52.10
2019-05-02T08:58:14.382Z,51.00
2019-05-02T09:02:25.881Z,50.40
2019-05-02T09:06:32.374Z,49.70
2019-05-02T09:10:43.392Z,48.70
2019-05-02T09:14:52.589Z,49.10
2019-05-02T09:19:02.806Z,48.60
2019-05-02T09:23:12.402Z,48.20
2019-05-02T09:27:22.435Z,48.00
2019-05-02T09:31:31.959Z,46.40
2019-05-02T09:35:42.181Z,45.70
2019-05-02T09:39:52.488Z,44.20
2019-05-02T09:44:02.891Z,44.10
2019-05-02T09:48:12.698Z,43.40
2019-05-02T09:52:22.272Z,42.60
2019-05-02T09:56:32.570Z,39.40
2019-05-02T10:00:53.237Z,38.80
2019-05-02T10:05:02.108Z,38.20
2019-05-02T10:09:12.068Z,35.00
2019-05-02T10:13:22.827Z,35.20
2019-05-02T10:17:32.239Z,34.00
2019-05-02T10:21:42.224Z,34.40
2019-05-02T10:25:52.120Z,33.50
2019-05-02T10:30:08.386Z,31.90
2019-05-02T10:34:16.287Z,31.80
2019-05-02T10:38:23.326Z,30.60
2019-05-02T10:42:32.575Z,30.60
2019-05-02T10:47:02.692Z,29.90
2019-05-02T10:51:34.388Z,29.90
2019-05-02T10:55:43.397Z,30.00
2019-05-02T10:59:53.524Z,28.60
2019-05-02T11:04:05.440Z,28.50
2019-05-02T11:08:14.294Z,28.60
2019-05-02T11:12:47.143Z,27.90
2019-05-02T11:17:03.694Z,28.30
2019-05-02T11:21:14.274Z,28.00
2019-05-02T11:25:23.078Z,28.40
2019-05-02T11:29:32.288Z,28.00
2019-05-02T11:33:41.875Z,28.80
2019-05-02T11:37:51.641Z,27.30
2019-05-02T11:42:02.136Z,27.30
2019-05-02T11:46:12.141Z,28.50
2019-05-02T11:50:22.099Z,28.60
2019-05-02T11:54:31.973Z,28.30
2019-05-02T11:58:48.045Z,27.80
2019-05-02T12:03:02.042Z,28.20
2019-05-02T12:07:12.723Z,27.90
2019-05-02T12:11:22.868Z,26.80
2019-05-02T12:15:32.401Z,26.40
2019-05-02T12:19:42.587Z,27.30
2019-05-02T12:23:52.816Z,28.60
2019-05-02T12:28:02.372Z,28.90
2019-05-02T12:32:12.007Z,29.40
2019-05-02T12:36:22.758Z,28.60
2019-05-02T12:40:32.591Z,27.80
2019-05-02T12:44:42.643Z,28.20
2019-05-02T12:48:52.185Z,28.70
2019-05-02T12:53:02.928Z,29.30
2019-05-02T12:57:12.594Z,29.90
2019-05-02T13:01:21.989Z,30.00
2019-05-02T13:05:31.792Z,31.10
2019-05-02T13:09:42.013Z,30.10
2019-05-02T13:13:53.343Z,31.10
2019-05-02T13:18:03.013Z,30.90
2019-05-02T13:22:32.504Z,31.00
2019-05-02T13:26:42.917Z,31.40
2019-05-02T13:30:59.639Z,33.20
2019-05-02T13:35:23.375Z,32.80
2019-05-02T13:39:45.567Z,34.00
2019-05-02T13:43:55.018Z,33.40
2019-05-02T13:48:04.043Z,34.40
2019-05-02T13:52:13.598Z,34.40
2019-05-02T13:56:47.830Z,34.20
2019-05-02T14:00:56.966Z,34.90
2019-05-02T14:05:12.706Z,35.20
2019-05-02T14:09:45.550Z,36.10
2019-05-02T14:13:54.349Z,36.60
2019-05-02T14:18:03.295Z,37.80
2019-05-02T14:22:12.923Z,38.80
2019-05-02T14:26:30.182Z,39.40
2019-05-02T14:30:39.521Z,39.60
2019-05-02T14:35:05.842Z,39.90
2019-05-02T14:39:14.786Z,40.10
2019-05-02T14:43:44.580Z,40.50
2019-05-02T14:47:57.621Z,41.40
2019-05-02T14:52:06.880Z,42.40
2019-05-02T14:56:22.788Z,43.50
2019-05-02T15:00:39.473Z,44.50
2019-05-02T15:04:48.783Z,45.80
2019-05-02T15:08:55.379Z,47.50
2019-05-02T15:13:04.186Z,49.50
2019-05-02T15:17:13.067Z,51.90
2019-05-02T15:21:22.888Z,54.90
2019-05-02T15:25:32.022Z,57.50
2019-05-02T15:29:42.047Z,60.40
2019-05-02T15:34:01.601Z,62.70
2019-05-02T15:38:09.782Z,64.80
2019-05-02T15:42:22.735Z,67.20
2019-05-02T15:46:31.924Z,68.80
2019-05-02T15:50:50.142Z,70.10
2019-05-02T15:54:59.462Z,70.90
2019-05-02T15:59:06.148Z,71.20
2019-05-02T16:03:13.142Z,71.60
2019-05-02T16:07:22.462Z,72.80
2019-05-02T16:11:32.245Z,73.90
2019-05-02T16:15:42.767Z,75.30
2019-05-02T16:19:58.733Z,75.90
2019-05-02T16:24:22.880Z,76.90
2019-05-02T16:28:32.402Z,77.70
2019-05-02T16:32:45.394Z,78.20
2019-05-02T16:37:13.553Z,78.90
2019-05-02T16:41:19.612Z,79.20
2019-05-02T16:45:30.281Z,79.90
2019-05-02T16:49:39.062Z,79.30
2019-05-02T16:53:47.857Z,77.80
2019-05-02T16:58:02.780Z,77.20
2019-05-02T17:02:07.973Z,76.10
2019-05-02T17:06:23.641Z,77.20
2019-05-02T17:10:34.855Z,76.30
2019-05-02T17:14:53.491Z,76.90
2019-05-02T17:18:56.639Z,76.10
2019-05-02T17:23:07.394Z,76.90
2019-05-02T17:27:20.494Z,77.50
2019-05-02T17:31:27.410Z,78.20
2019-05-02T17:35:36.190Z,78.50
2019-05-02T17:39:46.155Z,78.40
2019-05-02T17:43:58.779Z,78.80
2019-05-02T17:48:10.410Z,79.30
2019-05-02T17:52:27.338Z,79.90
2019-05-02T17:56:36.101Z,80.40
2019-05-02T18:00:54.487Z,80.90
2019-05-02T18:04:58.697Z,81.20
2019-05-02T18:09:09.377Z,81.50
2019-05-02T18:13:18.305Z,82.20
2019-05-02T18:17:27.819Z,81.70
2019-05-02T18:21:37.840Z,81.40
2019-05-02T18:25:46.718Z,81.60
2019-05-02T18:29:55.511Z,82.60
2019-05-02T18:34:04.779Z,83.10
2019-05-02T18:38:16.005Z,83.40
2019-05-02T18:42:25.590Z,83.90
2019-05-02T18:46:36.695Z,84.00
2019-05-02T18:50:47.629Z,84.70
2019-05-02T18:54:56.150Z,85.80
2019-05-02T18:59:05.093Z,85.50
2019-05-02T19:03:17.129Z,84.80
2019-05-02T19:07:32.837Z,84.70
2019-05-02T19:11:35.478Z,85.20
2019-05-02T19:15:48.675Z,85.60
2019-05-02T19:19:55.034Z,86.10
2019-05-02T19:24:03.990Z,86.70
2019-05-02T19:28:17.768Z,87.00
2019-05-02T19:32:28.375Z,87.40
2019-05-02T19:36:37.596Z,88.10
2019-05-02T19:40:47.002Z,88.50
2019-05-02T19:44:55.837Z,88.70
2019-05-02T19:49:06.964Z,89.00
2019-05-02T19:53:18.303Z,89.40
2019-05-02T19:57:27.123Z,90.00
2019-05-02T20:01:36.367Z,90.00
2019-05-02T20:05:48.170Z,90.00
2019-05-02T20:09:56.142Z,90.10
2019-05-02T20:14:09.337Z,90.20
2019-05-02T20:18:16.153Z,90.30
2019-05-02T20:22:26.204Z,90.40
2019-05-02T20:26:35.066Z,90.50
2019-05-02T20:30:44.122Z,90.40
2019-05-02T20:34:53.226Z,90.60
2019-05-02T20:39:02.390Z,90.60
2019-05-02T20:43:12.245Z,90.70
2019-05-02T20:47:23.993Z,90.70
2019-05-02T20:51:32.970Z,90.80
2019-05-02T20:55:41.939Z,90.90
2019-05-02T20:59:52.505Z,90.90
2019-05-02T21:04:02.723Z,91.00
2019-05-02T21:08:36.806Z,91.20
2019-05-02T21:12:45.941Z,91.30
2019-05-02T21:16:54.805Z,91.40
2019-05-02T21:21:03.664Z,91.50
2019-05-02T21:25:13.087Z,91.60
2019-05-02T21:29:22.910Z,91.60
2019-05-02T21:33:35.957Z,91.50
2019-05-02T21:37:44.766Z,91.60
2019-05-02T21:41:53.547Z,91.60
2019-05-02T21:46:02.669Z,91.40
2019-05-02T21:50:37.418Z,91.10
2019-05-02T21:55:12.374Z,90.80
2019-05-02T21:59:22.550Z,90.40
2019-05-02T22:03:32.477Z,90.00
2019-05-02T22:07:41.732Z,89.80
2019-05-02T22:11:52.013Z,89.20
2019-05-02T22:16:02.346Z,89.20
2019-05-02T22:20:12.325Z,90.30
2019-05-02T22:24:21.476Z,90.30
2019-05-02T22:28:30.863Z,90.50
2019-05-02T22:32:42.609Z,90.60
2019-05-02T22:36:53.787Z,90.50
2019-05-02T22:41:03.623Z,90.60
2019-05-02T22:45:13.213Z,90.80
2019-05-02T22:49:22.534Z,90.90
2019-05-02T22:53:32.203Z,90.80
2019-05-02T22:57:43.868Z,90.60
2019-05-02T23:01:52.789Z,90.50
2019-05-02T23:06:02.034Z,90.50
2019-05-02T23:10:12.640Z,90.50
2019-05-02T23:14:22.294Z,90.50
2019-05-02T23:18:31.953Z,90.50
2019-05-02T23:22:41.843Z,90.40
2019-05-02T23:27:28.291Z,90.60
2019-05-02T23:31:37.262Z,90.90
2019-05-02T23:35:46.160Z,91.20
2019-05-02T23:39:54.922Z,91.30
2019-05-02T23:44:03.855Z,91.50
2019-05-02T23:48:12.786Z,91.90
2019-05-02T23:52:22.453Z,91.70
2019-05-02T23:56:32.462Z,91.70
